sensor_id;sensor_type;location;lat;lon;timestamp;pressure;altitude;pressure_sealevel;temperature;humidity
77149;BME280;66122;47.130;16.844;2023-11-21T00:02:11;99241.63;;;4.85;100.00
77149;BME280;66122;47.130;16.844;2023-11-21T00:12:14;99231.56;;;4.96;100.00
77149;BME280;66122;47.130;16.844;2023-11-21T00:22:16;99236.22;;;4.90;100.00
77149;BME280;66122;47.130;16.844;2023-11-21T00:32:19;99273.31;;;4.81;100.00
77149;BME280;66122;47.130;16.844;2023-11-21T00:42:22;99272.75;;;4.72;100.00
77149;BME280;66122;47.130;16.844;2023-11-21T00:52:26;99252.31;;;4.81;100.00
77149;BME280;66122;47.130;16.844;2023-11-21T01:02:28;99239.97;;;4.83;100.00
77149;BME280;66122;47.130;16.844;2023-11-21T01:12:31;99237.22;;;4.86;100.00
77149;BME280;66122;47.130;16.844;2023-11-21T01:22:34;99237.78;;;4.94;100.00
77149;BME280;66122;47.130;16.844;2023-11-21T01:32:37;99243.75;;;4.97;100.00
77149;BME280;66122;47.130;16.844;2023-11-21T01:42:40;99221.94;;;4.97;100.00
77149;BME280;66122;47.130;16.844;2023-11-21T01:52:45;99216.19;;;4.87;100.00
77149;BME280;66122;47.130;16.844;2023-11-21T02:02:49;99218.44;;;4.96;100.00
77149;BME280;66122;47.130;16.844;2023-11-21T02:12:52;99203.97;;;5.08;100.00
77149;BME280;66122;47.130;16.844;2023-11-21T02:22:57;99193.56;;;5.05;100.00
77149;BME280;66122;47.130;16.844;2023-11-21T02:33:03;99190.88;;;5.06;100.00
77149;BME280;66122;47.130;16.844;2023-11-21T02:43:06;99192.00;;;5.01;100.00
77149;BME280;66122;47.130;16.844;2023-11-21T02:53:09;99166.06;;;4.93;100.00
77149;BME280;66122;47.130;16.844;2023-11-21T03:03:13;99164.53;;;4.88;100.00
77149;BME280;66122;47.130;16.844;2023-11-21T03:13:17;99178.47;;;4.90;100.00
77149;BME280;66122;47.130;16.844;2023-11-21T03:23:19;99174.91;;;4.91;100.00
77149;BME280;66122;47.130;16.844;2023-11-21T03:33:22;99178.06;;;4.77;100.00
77149;BME280;66122;47.130;16.844;2023-11-21T03:43:24;99195.78;;;4.94;100.00
77149;BME280;66122;47.130;16.844;2023-11-21T03:53:27;99193.22;;;4.92;100.00
77149;BME280;66122;47.130;16.844;2023-11-21T04:03:30;99196.19;;;4.83;100.00
77149;BME280;66122;47.130;16.844;2023-11-21T04:13:33;99216.84;;;4.92;100.00
77149;BME280;66122;47.130;16.844;2023-11-21T04:23:35;99228.75;;;5.01;100.00
77149;BME280;66122;47.130;16.844;2023-11-21T04:33:38;99240.84;;;5.05;100.00
77149;BME280;66122;47.130;16.844;2023-11-21T04:43:40;99244.16;;;5.10;100.00
77149;BME280;66122;47.130;16.844;2023-11-21T04:53:44;99238.34;;;5.02;100.00
77149;BME280;66122;47.130;16.844;2023-11-21T05:03:47;99279.19;;;5.09;100.00
77149;BME280;66122;47.130;16.844;2023-11-21T05:13:51;99301.47;;;4.99;100.00
77149;BME280;66122;47.130;16.844;2023-11-21T05:23:53;99316.84;;;4.86;100.00
77149;BME280;66122;47.130;16.844;2023-11-21T05:33:56;99299.75;;;4.98;100.00
77149;BME280;66122;47.130;16.844;2023-11-21T05:43:58;99296.66;;;5.10;100.00
77149;BME280;66122;47.130;16.844;2023-11-21T05:54:01;99292.38;;;5.07;100.00
77149;BME280;66122;47.130;16.844;2023-11-21T06:04:05;99296.78;;;5.07;100.00
77149;BME280;66122;47.130;16.844;2023-11-21T06:14:08;99304.94;;;4.99;100.00
77149;BME280;66122;47.130;16.844;2023-11-21T06:24:12;99309.97;;;5.05;100.00
77149;BME280;66122;47.130;16.844;2023-11-21T06:34:15;99321.06;;;5.12;100.00
77149;BME280;66122;47.130;16.844;2023-11-21T06:44:17;99318.00;;;5.24;100.00
77149;BME280;66122;47.130;16.844;2023-11-21T06:54:22;99324.88;;;5.27;100.00
77149;BME280;66122;47.130;16.844;2023-11-21T07:04:25;99347.19;;;5.38;100.00
77149;BME280;66122;47.130;16.844;2023-11-21T07:14:30;99340.66;;;5.48;100.00
77149;BME280;66122;47.130;16.844;2023-11-21T07:24:34;99346.34;;;5.60;100.00
77149;BME280;66122;47.130;16.844;2023-11-21T07:34:37;99340.94;;;5.63;100.00
77149;BME280;66122;47.130;16.844;2023-11-21T07:44:40;99340.63;;;5.70;100.00
77149;BME280;66122;47.130;16.844;2023-11-21T07:54:43;99339.28;;;5.82;100.00
77149;BME280;66122;47.130;16.844;2023-11-21T08:04:45;99340.84;;;5.86;100.00
77149;BME280;66122;47.130;16.844;2023-11-21T08:14:48;99350.38;;;5.90;100.00
77149;BME280;66122;47.130;16.844;2023-11-21T08:24:50;99298.00;;;5.84;100.00
77149;BME280;66122;47.130;16.844;2023-11-21T08:35:00;99341.31;;;6.38;100.00
77149;BME280;66122;47.130;16.844;2023-11-21T08:45:04;99331.91;;;6.71;100.00
77149;BME280;66122;47.130;16.844;2023-11-21T08:55:08;99343.75;;;6.81;100.00
77149;BME280;66122;47.130;16.844;2023-11-21T09:05:12;99334.34;;;6.94;100.00
77149;BME280;66122;47.130;16.844;2023-11-21T09:15:16;99337.00;;;7.13;100.00
77149;BME280;66122;47.130;16.844;2023-11-21T09:25:18;99303.31;;;7.20;100.00
77149;BME280;66122;47.130;16.844;2023-11-21T09:35:22;99329.28;;;7.46;100.00
77149;BME280;66122;47.130;16.844;2023-11-21T09:45:27;99302.66;;;7.51;100.00
77149;BME280;66122;47.130;16.844;2023-11-21T09:55:34;99290.25;;;8.06;100.00
77149;BME280;66122;47.130;16.844;2023-11-21T10:05:40;99301.41;;;8.28;100.00
77149;BME280;66122;47.130;16.844;2023-11-21T10:15:44;99290.91;;;8.27;100.00
77149;BME280;66122;47.130;16.844;2023-11-21T10:25:52;99291.94;;;8.41;100.00
77149;BME280;66122;47.130;16.844;2023-11-21T10:35:56;99285.13;;;8.86;100.00
77149;BME280;66122;47.130;16.844;2023-11-21T10:45:59;99283.84;;;9.24;100.00
77149;BME280;66122;47.130;16.844;2023-11-21T10:56:05;99275.81;;;9.26;100.00
77149;BME280;66122;47.130;16.844;2023-11-21T11:06:13;99278.38;;;9.27;100.00
77149;BME280;66122;47.130;16.844;2023-11-21T11:16:16;99280.75;;;9.32;100.00
77149;BME280;66122;47.130;16.844;2023-11-21T11:26:42;99273.34;;;9.38;100.00
77149;BME280;66122;47.130;16.844;2023-11-21T11:37:08;99264.34;;;9.57;100.00
77149;BME280;66122;47.130;16.844;2023-11-21T11:57:35;99239.97;;;9.96;100.00
77149;BME280;66122;47.130;16.844;2023-11-21T12:07:50;99253.53;;;10.05;100.00
77149;BME280;66122;47.130;16.844;2023-11-21T12:17:53;99254.09;;;10.10;100.00
77149;BME280;66122;47.130;16.844;2023-11-21T12:27:56;99240.19;;;10.37;100.00
77149;BME280;66122;47.130;16.844;2023-11-21T12:38:00;99228.50;;;10.68;98.17
77149;BME280;66122;47.130;16.844;2023-11-21T12:48:05;99229.00;;;10.46;100.00
77149;BME280;66122;47.130;16.844;2023-11-21T12:58:13;99231.25;;;10.66;99.51
77149;BME280;66122;47.130;16.844;2023-11-21T13:08:17;99232.78;;;10.28;98.98
77149;BME280;66122;47.130;16.844;2023-11-21T13:18:24;99236.19;;;10.44;97.86
77149;BME280;66122;47.130;16.844;2023-11-21T13:28:30;99219.53;;;10.56;97.98
77149;BME280;66122;47.130;16.844;2023-11-21T13:38:36;99230.31;;;10.53;97.51
77149;BME280;66122;47.130;16.844;2023-11-21T13:48:39;99229.75;;;10.34;97.42
77149;BME280;66122;47.130;16.844;2023-11-21T13:58:50;99222.88;;;10.01;97.78
77149;BME280;66122;47.130;16.844;2023-11-21T14:08:54;99229.06;;;9.72;100.00
77149;BME280;66122;47.130;16.844;2023-11-21T14:18:59;99242.72;;;9.34;100.00
77149;BME280;66122;47.130;16.844;2023-11-21T14:29:16;99228.94;;;9.14;100.00
77149;BME280;66122;47.130;16.844;2023-11-21T14:39:22;99243.88;;;8.99;100.00
77149;BME280;66122;47.130;16.844;2023-11-21T14:49:30;99252.97;;;8.78;100.00
77149;BME280;66122;47.130;16.844;2023-11-21T14:59:44;99260.56;;;8.35;100.00
77149;BME280;66122;47.130;16.844;2023-11-21T15:09:53;99266.69;;;8.18;100.00
77149;BME280;66122;47.130;16.844;2023-11-21T15:19:56;99265.16;;;7.80;100.00
77149;BME280;66122;47.130;16.844;2023-11-21T15:29:59;99282.31;;;7.54;100.00
77149;BME280;66122;47.130;16.844;2023-11-21T15:40:02;99298.41;;;7.12;100.00
77149;BME280;66122;47.130;16.844;2023-11-21T15:50:08;99319.69;;;7.07;100.00
77149;BME280;66122;47.130;16.844;2023-11-21T16:00:13;99314.41;;;7.07;100.00
77149;BME280;66122;47.130;16.844;2023-11-21T16:10:19;99315.84;;;7.15;100.00
77149;BME280;66122;47.130;16.844;2023-11-21T16:20:21;99321.53;;;7.24;100.00
77149;BME280;66122;47.130;16.844;2023-11-21T16:30:25;99325.34;;;7.36;100.00
77149;BME280;66122;47.130;16.844;2023-11-21T16:40:28;99335.28;;;7.31;100.00
77149;BME280;66122;47.130;16.844;2023-11-21T16:50:31;99350.28;;;7.29;100.00
77149;BME280;66122;47.130;16.844;2023-11-21T17:00:34;99352.50;;;7.00;100.00
77149;BME280;66122;47.130;16.844;2023-11-21T17:10:37;99354.16;;;6.84;100.00
77149;BME280;66122;47.130;16.844;2023-11-21T17:20:41;99358.78;;;6.59;100.00
77149;BME280;66122;47.130;16.844;2023-11-21T17:30:44;99366.50;;;6.23;100.00
77149;BME280;66122;47.130;16.844;2023-11-21T17:40:47;99366.56;;;6.01;100.00
77149;BME280;66122;47.130;16.844;2023-11-21T17:50:49;99374.03;;;5.90;100.00
77149;BME280;66122;47.130;16.844;2023-11-21T18:00:52;99381.59;;;5.76;100.00
77149;BME280;66122;47.130;16.844;2023-11-21T18:10:55;99379.28;;;5.68;100.00
77149;BME280;66122;47.130;16.844;2023-11-21T18:21:01;99393.44;;;5.64;100.00
77149;BME280;66122;47.130;16.844;2023-11-21T18:31:07;99413.69;;;5.62;100.00
77149;BME280;66122;47.130;16.844;2023-11-21T18:41:19;99414.22;;;5.70;100.00
77149;BME280;66122;47.130;16.844;2023-11-21T18:51:21;99389.91;;;5.87;100.00
77149;BME280;66122;47.130;16.844;2023-11-21T19:01:27;99406.13;;;5.98;100.00
77149;BME280;66122;47.130;16.844;2023-11-21T19:11:30;99414.47;;;5.86;100.00
77149;BME280;66122;47.130;16.844;2023-11-21T19:21:34;99422.81;;;5.75;100.00
77149;BME280;66122;47.130;16.844;2023-11-21T19:31:36;99433.75;;;5.65;100.00
77149;BME280;66122;47.130;16.844;2023-11-21T19:41:39;99430.25;;;5.64;100.00
77149;BME280;66122;47.130;16.844;2023-11-21T19:51:46;99445.31;;;5.61;100.00
77149;BME280;66122;47.130;16.844;2023-11-21T20:01:49;99457.97;;;5.49;100.00
77149;BME280;66122;47.130;16.844;2023-11-21T20:11:53;99469.16;;;5.33;100.00
77149;BME280;66122;47.130;16.844;2023-11-21T20:21:56;99470.00;;;5.10;100.00
77149;BME280;66122;47.130;16.844;2023-11-21T20:32:00;99468.72;;;4.97;100.00
77149;BME280;66122;47.130;16.844;2023-11-21T20:42:04;99475.56;;;5.01;100.00
77149;BME280;66122;47.130;16.844;2023-11-21T20:52:07;99461.41;;;5.05;100.00
77149;BME280;66122;47.130;16.844;2023-11-21T21:02:09;99494.31;;;4.90;100.00
77149;BME280;66122;47.130;16.844;2023-11-21T21:12:12;99499.38;;;4.96;100.00
77149;BME280;66122;47.130;16.844;2023-11-21T21:22:15;99474.31;;;4.88;100.00
77149;BME280;66122;47.130;16.844;2023-11-21T21:32:19;99510.84;;;4.94;100.00
77149;BME280;66122;47.130;16.844;2023-11-21T21:42:22;99505.16;;;4.81;100.00
77149;BME280;66122;47.130;16.844;2023-11-21T21:52:34;99493.56;;;4.62;100.00
77149;BME280;66122;47.130;16.844;2023-11-21T22:02:37;99517.94;;;4.65;100.00
77149;BME280;66122;47.130;16.844;2023-11-21T22:12:41;99518.84;;;4.64;100.00
77149;BME280;66122;47.130;16.844;2023-11-21T22:22:43;99525.06;;;4.62;100.00
77149;BME280;66122;47.130;16.844;2023-11-21T22:32:46;99540.53;;;4.69;100.00
77149;BME280;66122;47.130;16.844;2023-11-21T22:42:49;99546.50;;;4.75;100.00
77149;BME280;66122;47.130;16.844;2023-11-21T22:52:51;99541.34;;;4.71;100.00
77149;BME280;66122;47.130;16.844;2023-11-21T23:02:56;99546.31;;;4.81;100.00
77149;BME280;66122;47.130;16.844;2023-11-21T23:12:59;99548.88;;;5.07;100.00
77149;BME280;66122;47.130;16.844;2023-11-21T23:23:01;99548.66;;;5.13;100.00
77149;BME280;66122;47.130;16.844;2023-11-21T23:33:04;99544.91;;;5.20;100.00
77149;BME280;66122;47.130;16.844;2023-11-21T23:43:06;99537.88;;;5.21;100.00
77149;BME280;66122;47.130;16.844;2023-11-21T23:53:09;99541.50;;;5.18;100.00
